CST,Max TemperatureF,Mean TemperatureF,Min TemperatureF,Max Dew PointF,MeanDew PointF,Min DewpointF,Max Humidity, Mean Humidity, Min Humidity, Max Sea Level PressureIn, Mean Sea Level PressureIn, Min Sea Level PressureIn, Max VisibilityMiles, Mean VisibilityMiles, Min VisibilityMiles, Max Wind SpeedMPH, Mean Wind SpeedMPH, Max Gust SpeedMPH,PrecipitationIn, CloudCover, Events, WindDirDegrees
2012-11-1,46,38,28,36,28,23,81,65,46,30.05,29.97,29.91,10,10,10,16,5,22,0.00,4,,331
2012-11-2,41,32,23,28,25,21,100,78,53,30.16,30.11,30.05,10,10,10,8,3,,0.00,4,,12
2012-11-3,42,38,35,30,29,27,75,67,57,30.22,30.19,30.15,10,10,10,6,2,,0.00,8,,66
2012-11-4,46,36,26,39,32,27,100,78,62,30.22,30.19,30.14,10,10,5,6,2,,0.01,6,,80
2012-11-5,44,40,37,37,36,32,93,82,70,30.19,30.11,29.93,10,9,5,16,6,21,0.00,8,,99
2012-11-6,44,42,39,41,38,36,100,89,76,29.97,29.84,29.74,10,7,2,15,11,23,0.32,8,Rain,251
2012-11-7,46,40,35,37,36,34,100,86,62,30.11,30.05,29.97,10,10,10,8,5,,0.00,6,,257
2012-11-8,55,46,37,37,35,34,93,80,51,30.05,29.99,29.90,12,10,10,14,9,21,0.00,1,,161
2012-11-9,55,45,35,41,37,36,100,86,54,30.05,30.00,29.93,10,10,10,16,8,21,0.00,3,,44
2012-11-10,66,55,44,57,48,41,100,86,68,29.92,29.68,29.45,10,6,2,18,12,25,0.39,7,Rain,106
2012-11-11,57,40,23,54,34,14,100,84,64,29.97,29.72,29.49,10,9,3,17,12,25,0.02,8,Rain-Snow,251
2012-11-12,26,22,19,19,16,12,93,75,63,30.27,30.03,29.92,10,9,4,18,11,24,0.00,7,Snow,254
2012-11-13,44,30,15,30,21,16,100,76,39,30.34,30.29,30.26,10,10,10,13,4,,0.00,3,,174
2012-11-14,53,43,33,36,31,28,81,68,41,30.26,30.21,30.13,10,10,10,9,6,,0.00,7,,151
2012-11-15,51,38,26,36,28,12,87,65,44,30.46,30.23,30.11,10,10,10,12,5,,0.00,4,,235
2012-11-16,44,30,17,30,18,12,86,69,29,30.48,30.42,30.31,12,10,10,8,3,,0.00,1,,122
2012-11-17,57,46,35,37,34,30,87,68,44,30.31,30.25,30.19,10,10,10,21,11,25,0.00,3,,154
2012-11-18,59,52,46,36,34,32,58,52,38,30.19,30.13,30.07,10,10,10,18,14,25,0.00,4,,152
2012-11-19,59,47,35,39,37,34,93,65,48,30.08,30.05,30.01,10,10,10,13,9,,0.00,4,,155
2012-11-20,53,40,28,37,34,28,100,86,47,30.16,30.10,30.03,10,8,0,8,3,,0.00,1,Fog,276
2012-11-21,62,52,41,45,38,34,81,64,44,30.02,29.88,29.68,10,10,10,17,8,29,0.00,1,,169
2012-11-22,60,42,24,45,37,19,100,72,54,29.96,29.72,29.60,12,9,1,29,14,37,0.00,4,Rain-Snow,227
2012-11-23,26,20,14,19,16,10,93,81,64,30.35,30.18,29.96,10,8,2,25,19,36,0.00,6,Snow,297
2012-11-24,30,18,6,21,13,3,92,81,60,30.34,30.11,29.79,12,10,10,12,4,,0.00,3,,178
2012-11-25,30,28,24,27,23,14,86,76,64,30.15,29.94,29.79,10,10,10,17,9,23,0.00,8,,290
2012-11-26,23,16,10,12,9,7,86,77,54,30.39,30.29,30.15,10,10,10,15,9,17,0.00,3,Snow,280
2012-11-27,35,26,17,25,16,10,93,77,65,30.31,30.22,30.07,10,10,10,12,7,16,0.00,2,,213
2012-11-28,37,30,24,27,24,21,86,77,52,30.32,30.22,30.08,10,10,10,15,8,18,0.00,7,,249
2012-11-29,39,29,19,28,25,19,100,85,61,30.11,30.08,30.05,10,9,7,15,4,18,0.00,2,,56
2012-11-30,35,32,30,34,30,27,93,87,81,30.17,30.11,30.06,10,7,3,14,7,18,0.00,7,,73